Dubois Crossroads, Indiana
Current Conditions -  °F | °C
As of 4:15 PM on Tuesday 25 Nov 2014 (Local Time) from KHNB Reporting Station
Overcast Overcast  
Wind Chill: 30°   Ceiling: 2600
Heat Index: 36°   Visibility: 10mi
Dew Point: 27°   Wind: 7mph
Humidity: 70%   Direction: 330°NNW
Pressure: 30.18"   Gusts: NA
Location:  38.4736°N, 86.7813°W
Report Text: KHNB 252215Z AUTO 33006KT 10SM OVC026 02/M03 A3018 RMK AO1
Loading
Personal Weather Stations






























Interactive Weather Map New forecast layout! Learn more

10-Day Weather Forecast

Advertisements
Track Severe Weather on mobile